createdAt,value
2024-03-12T00:00:46.796Z,84.51
2024-03-12T00:03:13.402Z,84.08
2024-03-12T00:05:41.879Z,85.33
2024-03-12T00:08:08.901Z,85.85
2024-03-12T00:10:35.554Z,86.12
2024-03-12T00:13:03.192Z,85.68
2024-03-12T00:15:30.214Z,85.69
2024-03-12T00:17:56.966Z,86.37
2024-03-12T00:20:36.482Z,85.66
2024-03-12T00:23:03.403Z,85.44
2024-03-12T00:25:31.740Z,85.38
2024-03-12T00:27:58.479Z,85.41
2024-03-12T00:30:31.958Z,84.68
2024-03-12T00:32:59.312Z,84.31
2024-03-12T00:35:29.274Z,84.15
2024-03-12T00:37:58.105Z,84.27
2024-03-12T00:40:34.182Z,84.28
2024-03-12T00:43:01.540Z,85.43
2024-03-12T00:45:30.848Z,86.20
2024-03-12T00:47:58.530Z,85.90
2024-03-12T00:50:25.205Z,85.20
2024-03-12T00:52:54.345Z,84.85
2024-03-12T00:55:22.121Z,84.71
2024-03-12T00:57:53.866Z,83.83
2024-03-12T01:00:26.911Z,83.60
2024-03-12T01:02:55.404Z,83.71
2024-03-12T01:05:26.659Z,83.28
2024-03-12T01:08:00.034Z,83.54
2024-03-12T01:10:31.591Z,83.69
2024-03-12T01:13:00.160Z,83.29
2024-03-12T01:15:27.767Z,84.01
2024-03-12T01:17:55.271Z,82.87
2024-03-12T01:20:23.092Z,83.27
2024-03-12T01:22:51.700Z,82.78
2024-03-12T01:25:19.166Z,82.50
2024-03-12T01:27:45.707Z,82.19
2024-03-12T01:30:15.645Z,82.88
2024-03-12T01:32:42.687Z,83.07
2024-03-12T01:35:09.592Z,82.83
2024-03-12T01:37:44.189Z,81.90
2024-03-12T01:40:22.706Z,81.46
2024-03-12T01:42:55.303Z,81.48
2024-03-12T01:45:23.975Z,82.23
2024-03-12T01:47:56.045Z,81.47
2024-03-12T01:50:25.788Z,81.04
2024-03-12T01:52:59.425Z,81.50
2024-03-12T01:55:26.197Z,81.23
2024-03-12T01:57:55.779Z,82.32
2024-03-12T02:00:22.905Z,82.54
2024-03-12T02:02:53.489Z,81.86
2024-03-12T02:05:20.928Z,81.97
2024-03-12T02:07:50.952Z,82.68
2024-03-12T02:10:20.101Z,83.64
2024-03-12T02:12:47.470Z,83.61
2024-03-12T02:15:18.902Z,82.75
2024-03-12T02:17:46.107Z,83.44
2024-03-12T02:20:14.009Z,82.76
2024-03-12T02:22:41.401Z,82.84
2024-03-12T02:25:11.304Z,82.86
2024-03-12T02:27:38.938Z,82.67
2024-03-12T02:30:06.244Z,82.25
2024-03-12T02:32:33.765Z,82.50
2024-03-12T02:35:00.557Z,82.63
2024-03-12T02:37:27.086Z,83.58
2024-03-12T02:39:53.608Z,83.36
2024-03-12T02:42:20.218Z,83.85
2024-03-12T02:44:47.029Z,83.22
2024-03-12T02:47:14.084Z,82.75
2024-03-12T02:49:40.862Z,82.60
2024-03-12T02:52:07.999Z,82.64
2024-03-12T02:54:34.562Z,83.42
2024-03-12T02:57:01.151Z,82.95
2024-03-12T02:59:28.534Z,82.96
2024-03-12T03:01:58.540Z,82.96
2024-03-12T03:04:25.134Z,82.69
2024-03-12T03:06:52.568Z,82.10
2024-03-12T03:09:19.753Z,81.42
2024-03-12T03:11:46.467Z,82.11
2024-03-12T03:14:13.026Z,83.53
2024-03-12T03:16:39.509Z,82.99
2024-03-12T03:19:06.561Z,82.88
2024-03-12T03:21:33.158Z,82.23
2024-03-12T03:23:59.823Z,82.09
2024-03-12T03:26:26.378Z,82.80
2024-03-12T03:28:52.883Z,84.02
2024-03-12T03:31:19.478Z,83.75
2024-03-12T03:33:48.640Z,82.79
2024-03-12T03:36:15.423Z,82.59
2024-03-12T03:38:42.134Z,82.56
2024-03-12T03:41:10.494Z,81.98
2024-03-12T03:43:38.682Z,81.87
2024-03-12T03:46:06.241Z,81.53
2024-03-12T03:48:32.820Z,81.61
2024-03-12T03:50:59.338Z,82.26
2024-03-12T03:53:26.103Z,82.81
2024-03-12T03:55:55.437Z,83.16
2024-03-12T03:58:24.739Z,83.92
2024-03-12T04:00:54.204Z,84.38
2024-03-12T04:03:21.804Z,83.96
2024-03-12T04:05:48.536Z,83.98
2024-03-12T04:08:17.305Z,83.94
2024-03-12T04:10:43.948Z,83.55
2024-03-12T04:13:10.826Z,82.55
2024-03-12T04:15:37.547Z,82.05
2024-03-12T04:18:04.234Z,81.74
2024-03-12T04:20:30.807Z,81.89
2024-03-12T04:22:57.426Z,82.39
2024-03-12T04:25:24.021Z,82.93
2024-03-12T04:27:52.006Z,83.36
2024-03-12T04:30:19.739Z,82.58
2024-03-12T04:32:48.670Z,82.66
2024-03-12T04:35:15.287Z,82.52
2024-03-12T04:37:42.132Z,82.07
2024-03-12T04:40:09.409Z,82.77
2024-03-12T04:42:37.796Z,82.97
2024-03-12T04:45:08.802Z,82.23
2024-03-12T04:47:38.385Z,83.57
2024-03-12T04:50:05.479Z,84.10
2024-03-12T04:52:34.805Z,84.58
2024-03-12T04:55:01.751Z,84.19
2024-03-12T04:57:28.436Z,84.35
2024-03-12T04:59:55.742Z,82.97
2024-03-12T05:02:22.232Z,84.27
2024-03-12T05:04:48.712Z,85.28
2024-03-12T05:07:15.265Z,83.88
2024-03-12T05:09:41.827Z,83.10
2024-03-12T05:12:08.482Z,83.66
2024-03-12T05:14:35.072Z,83.65
2024-03-12T05:17:01.600Z,84.33
2024-03-12T05:19:28.129Z,83.91
2024-03-12T05:21:54.731Z,83.92
2024-03-12T05:24:21.303Z,83.63
2024-03-12T05:26:50.508Z,85.19
2024-03-12T05:29:18.759Z,84.83
2024-03-12T05:31:45.464Z,84.58
2024-03-12T05:34:20.113Z,83.48
2024-03-12T05:36:49.916Z,84.17
2024-03-12T05:39:20.590Z,83.81
2024-03-12T05:41:50.566Z,84.01
2024-03-12T05:44:35.504Z,84.82
2024-03-12T05:47:20.421Z,84.20
2024-03-12T05:49:46.895Z,84.34
2024-03-12T05:52:13.510Z,83.74
2024-03-12T05:54:41.624Z,83.41
2024-03-12T05:57:08.203Z,82.95
2024-03-12T05:59:34.676Z,82.82
2024-03-12T06:02:01.895Z,81.93
2024-03-12T06:04:33.156Z,81.94
2024-03-12T06:07:02.953Z,82.31
2024-03-12T06:09:29.897Z,82.83
2024-03-12T06:11:56.406Z,82.41
2024-03-12T06:14:26.304Z,82.71
2024-03-12T06:16:52.987Z,82.17
2024-03-12T06:19:20.541Z,81.85
2024-03-12T06:21:47.524Z,83.12
2024-03-12T06:24:14.133Z,82.34
2024-03-12T06:26:41.283Z,82.58
2024-03-12T06:29:08.241Z,81.91
2024-03-12T06:31:35.967Z,82.63
2024-03-12T06:34:03.293Z,82.04
2024-03-12T06:36:29.834Z,82.42
2024-03-12T06:38:56.328Z,82.81
2024-03-12T06:41:25.514Z,82.42
2024-03-12T06:43:52.145Z,82.39
2024-03-12T06:46:20.917Z,81.95
2024-03-12T06:48:48.491Z,82.46
2024-03-12T06:51:16.729Z,82.25
2024-03-12T06:53:44.449Z,81.84
2024-03-12T06:56:12.657Z,82.04
2024-03-12T06:58:45.989Z,81.29
2024-03-12T07:01:14.771Z,81.29
2024-03-12T07:03:43.830Z,81.32
2024-03-12T07:06:10.418Z,82.28
2024-03-12T07:08:40.127Z,82.11
2024-03-12T07:11:08.625Z,81.21
2024-03-12T07:13:35.550Z,80.96
2024-03-12T07:16:04.204Z,81.52
2024-03-12T07:18:30.748Z,81.46
2024-03-12T07:20:57.379Z,80.71
2024-03-12T07:23:23.914Z,81.21
2024-03-12T07:25:50.986Z,80.62
2024-03-12T07:28:20.735Z,80.74
2024-03-12T07:30:51.246Z,82.32
2024-03-12T07:33:18.037Z,81.91
2024-03-12T07:35:44.697Z,82.55
2024-03-12T07:38:11.191Z,82.63
2024-03-12T07:40:39.309Z,81.61
2024-03-12T07:43:07.095Z,81.31
2024-03-12T07:45:33.770Z,81.05
2024-03-12T07:48:00.428Z,80.25
2024-03-12T07:50:31.862Z,80.80
2024-03-12T07:52:58.421Z,80.39
2024-03-12T07:55:26.424Z,80.19
2024-03-12T07:57:53.006Z,80.51
2024-03-12T08:00:20.388Z,80.71
2024-03-12T08:02:47.065Z,80.27
2024-03-12T08:05:14.056Z,79.53
2024-03-12T08:07:41.015Z,80.71
2024-03-12T08:10:10.558Z,79.51
2024-03-12T08:12:40.412Z,78.97
2024-03-12T08:15:08.282Z,79.43
2024-03-12T08:17:34.930Z,79.05
2024-03-12T08:20:01.471Z,79.57
2024-03-12T08:22:28.281Z,79.05
2024-03-12T08:24:56.058Z,78.81
2024-03-12T08:27:22.640Z,79.66
2024-03-12T08:29:49.229Z,79.43
2024-03-12T08:32:15.804Z,79.60
2024-03-12T08:34:43.066Z,79.09
2024-03-12T08:37:12.695Z,79.88
2024-03-12T08:39:39.489Z,79.71
2024-03-12T08:42:08.711Z,79.61
2024-03-12T08:44:35.296Z,79.58
2024-03-12T08:47:01.760Z,78.91
2024-03-12T08:49:28.250Z,79.12
2024-03-12T08:51:54.781Z,79.02
2024-03-12T08:54:21.314Z,80.25
2024-03-12T08:56:47.833Z,80.20
2024-03-12T08:59:15.081Z,81.05
2024-03-12T09:01:41.953Z,81.14
2024-03-12T09:04:09.295Z,81.24
2024-03-12T09:06:36.270Z,80.40
2024-03-12T09:09:02.822Z,79.18
2024-03-12T09:11:29.431Z,79.04
2024-03-12T09:13:55.970Z,79.24
2024-03-12T09:16:22.950Z,78.64
2024-03-12T09:18:49.664Z,78.07
2024-03-12T09:21:16.507Z,79.31
2024-03-12T09:23:53.477Z,78.94
2024-03-12T09:26:28.835Z,77.58
2024-03-12T09:28:55.392Z,77.33
2024-03-12T09:31:21.984Z,77.46
2024-03-12T09:33:49.101Z,78.40
2024-03-12T09:36:15.918Z,78.57
2024-03-12T09:38:45.052Z,78.41
2024-03-12T09:41:14.304Z,76.88
2024-03-12T09:43:45.043Z,76.61
2024-03-12T09:46:17.514Z,76.38
2024-03-12T09:48:46.128Z,76.49
2024-03-12T09:51:13.273Z,76.11
2024-03-12T09:53:42.301Z,76.47
2024-03-12T09:56:09.497Z,77.22
2024-03-12T09:58:36.040Z,76.78
2024-03-12T10:01:07.394Z,76.94
2024-03-12T10:03:37.177Z,77.08
2024-03-12T10:06:04.146Z,76.34
2024-03-12T10:08:30.889Z,76.03
2024-03-12T10:10:58.026Z,76.60
2024-03-12T10:13:25.121Z,75.28
2024-03-12T10:16:00.826Z,75.70
2024-03-12T10:18:30.803Z,74.41
2024-03-12T10:21:02.748Z,73.82
2024-03-12T10:23:35.727Z,73.80
2024-03-12T10:26:19.332Z,74.05
2024-03-12T10:28:47.024Z,74.15
2024-03-12T10:31:14.648Z,74.87
2024-03-12T10:33:45.788Z,74.17
2024-03-12T10:36:12.952Z,75.14
2024-03-12T10:38:41.187Z,75.13
2024-03-12T10:41:20.659Z,74.08
2024-03-12T10:43:51.118Z,73.54
2024-03-12T10:46:20.566Z,72.81
2024-03-12T10:48:48.891Z,73.19
2024-03-12T10:51:16.892Z,75.18
2024-03-12T10:53:47.589Z,75.89
2024-03-12T10:56:16.055Z,75.32
2024-03-12T10:58:47.872Z,75.94
2024-03-12T11:01:16.173Z,75.28
2024-03-12T11:03:44.088Z,75.82
2024-03-12T11:06:13.836Z,74.96
2024-03-12T11:08:40.705Z,74.51
2024-03-12T11:11:10.171Z,74.35
2024-03-12T11:13:37.084Z,75.00
2024-03-12T11:16:11.450Z,76.80
2024-03-12T11:18:40.032Z,76.50
2024-03-12T11:21:11.401Z,75.90
2024-03-12T11:23:37.996Z,74.83
2024-03-12T11:26:05.832Z,78.37
2024-03-12T11:28:33.457Z,76.89
2024-03-12T11:31:03.204Z,75.58
2024-03-12T11:33:38.818Z,76.63
2024-03-12T11:36:12.047Z,76.42
2024-03-12T11:38:38.747Z,75.85
2024-03-12T11:41:05.288Z,77.92
2024-03-12T11:43:39.323Z,76.73
2024-03-12T11:46:08.318Z,75.86
2024-03-12T11:48:42.564Z,75.18
2024-03-12T11:51:13.308Z,75.22
2024-03-12T11:53:42.578Z,75.55
2024-03-12T11:56:17.786Z,75.25
2024-03-12T11:58:49.525Z,74.49
2024-03-12T12:01:20.458Z,74.40
2024-03-12T12:03:51.410Z,74.68
2024-03-12T12:06:20.647Z,74.79
2024-03-12T12:08:57.237Z,74.84
2024-03-12T12:11:27.632Z,75.04
2024-03-12T12:14:00.540Z,74.73
2024-03-12T12:16:29.389Z,74.54
2024-03-12T12:19:06.531Z,74.29
2024-03-12T12:21:34.541Z,74.86
2024-03-12T12:24:03.695Z,73.78
2024-03-12T12:26:37.381Z,74.90
2024-03-12T12:29:05.305Z,73.56
2024-03-12T12:31:36.935Z,72.62
2024-03-12T12:34:06.565Z,73.12
2024-03-12T12:36:37.074Z,72.87
2024-03-12T12:39:05.313Z,72.28
2024-03-12T12:41:58.713Z,72.15
2024-03-12T12:44:28.352Z,72.68
2024-03-12T12:46:56.045Z,72.59
2024-03-12T12:49:23.760Z,71.89
2024-03-12T12:51:51.327Z,73.15
2024-03-12T12:54:22.730Z,72.82
2024-03-12T12:56:50.940Z,73.71
2024-03-12T12:59:21.086Z,73.92
2024-03-12T13:01:49.536Z,73.65
2024-03-12T13:04:24.348Z,73.68
2024-03-12T13:06:53.217Z,73.09
2024-03-12T13:09:30.258Z,72.27
2024-03-12T13:11:58.270Z,71.78
2024-03-12T13:14:26.724Z,71.61
2024-03-12T13:16:54.078Z,72.67
2024-03-12T13:19:21.137Z,72.34
2024-03-12T13:21:49.329Z,72.64
2024-03-12T13:24:15.913Z,72.44
2024-03-12T13:26:42.955Z,74.64
2024-03-12T13:29:09.471Z,73.50
2024-03-12T13:31:36.340Z,72.63
2024-03-12T13:34:02.854Z,73.18
2024-03-12T13:36:29.502Z,73.32
2024-03-12T13:38:56.873Z,72.86
2024-03-12T13:41:26.573Z,71.90
2024-03-12T13:43:53.549Z,71.85
2024-03-12T13:46:20.750Z,71.19
2024-03-12T13:48:47.963Z,71.12
2024-03-12T13:51:14.696Z,70.13
2024-03-12T13:53:41.710Z,70.58
2024-03-12T13:56:11.227Z,70.53
2024-03-12T13:58:40.097Z,70.47
2024-03-12T14:01:12.509Z,70.34
2024-03-12T14:03:41.251Z,70.32
2024-03-12T14:06:10.284Z,69.72
2024-03-12T14:08:37.805Z,71.17
2024-03-12T14:11:04.798Z,71.27
2024-03-12T14:13:32.835Z,70.82
2024-03-12T14:16:00.085Z,70.97
2024-03-12T14:18:27.624Z,71.01
2024-03-12T14:20:55.985Z,71.47
2024-03-12T14:23:22.922Z,71.55
2024-03-12T14:25:51.977Z,71.52
2024-03-12T14:28:18.544Z,73.83
2024-03-12T14:30:45.944Z,75.79
2024-03-12T14:33:13.234Z,76.15
2024-03-12T14:35:40.157Z,75.72
2024-03-12T14:38:06.940Z,75.83
2024-03-12T14:40:33.535Z,75.62
2024-03-12T14:43:01.620Z,76.40
2024-03-12T14:45:28.793Z,77.49
2024-03-12T14:47:57.540Z,75.53
2024-03-12T14:50:24.188Z,76.89
2024-03-12T14:52:51.113Z,78.25
2024-03-12T14:55:17.639Z,77.35
2024-03-12T14:57:44.187Z,76.49
2024-03-12T15:00:11.658Z,75.90
2024-03-12T15:02:38.482Z,74.46
2024-03-12T15:05:12.102Z,75.69
2024-03-12T15:07:44.639Z,76.04
2024-03-12T15:10:11.871Z,75.22
2024-03-12T15:12:40.842Z,74.77
2024-03-12T15:15:12.133Z,74.13
2024-03-12T15:17:42.759Z,74.28
2024-03-12T15:20:17.057Z,74.30
2024-03-12T15:22:46.347Z,74.56
2024-03-12T15:25:13.510Z,73.41
2024-03-12T15:27:41.612Z,73.70
2024-03-12T15:30:08.617Z,73.99
2024-03-12T15:32:38.940Z,74.33
2024-03-12T15:35:06.797Z,73.86
2024-03-12T15:37:33.506Z,73.93
2024-03-12T15:40:06.569Z,72.25
2024-03-12T15:42:35.038Z,72.18
2024-03-12T15:45:05.863Z,72.60
2024-03-12T15:47:35.650Z,72.86
2024-03-12T15:50:02.565Z,72.38
2024-03-12T15:52:29.200Z,71.69
2024-03-12T15:54:56.149Z,71.43
2024-03-12T15:57:24.248Z,70.74
2024-03-12T15:59:51.063Z,70.34
2024-03-12T16:02:19.043Z,70.33
2024-03-12T16:04:45.819Z,70.41
2024-03-12T16:07:13.062Z,70.76
2024-03-12T16:09:39.747Z,70.12
2024-03-12T16:12:06.663Z,70.05
2024-03-12T16:14:33.685Z,70.15
2024-03-12T16:17:00.296Z,70.39
2024-03-12T16:19:31.045Z,70.11
2024-03-12T16:21:58.473Z,70.37
2024-03-12T16:24:28.633Z,70.52
2024-03-12T16:26:57.238Z,70.39
2024-03-12T16:29:24.976Z,69.71
2024-03-12T16:31:51.966Z,70.75
2024-03-12T16:34:18.874Z,71.42
2024-03-12T16:36:45.849Z,71.78
2024-03-12T16:39:14.219Z,73.24
2024-03-12T16:41:41.449Z,74.37
2024-03-12T16:44:07.958Z,74.68
2024-03-12T16:46:35.111Z,74.20
2024-03-12T16:49:01.924Z,73.84
2024-03-12T16:51:29.035Z,72.45
2024-03-12T16:53:55.807Z,72.80
2024-03-12T16:58:52.219Z,71.80
2024-03-12T17:01:21.112Z,71.67
2024-03-12T17:03:48.433Z,72.34
2024-03-12T17:06:17.261Z,72.17
2024-03-12T17:08:44.262Z,72.30
2024-03-12T17:11:11.173Z,72.26
2024-03-12T17:13:39.097Z,72.02
2024-03-12T17:16:08.165Z,72.39
2024-03-12T17:18:35.728Z,71.69
2024-03-12T17:21:03.770Z,71.06
2024-03-12T17:23:31.245Z,71.23
2024-03-12T17:25:58.457Z,70.79
2024-03-12T17:28:25.539Z,71.51
2024-03-12T17:30:52.579Z,71.54
2024-03-12T17:33:19.508Z,71.91
2024-03-12T17:35:48.500Z,72.39
2024-03-12T17:38:21.827Z,72.46
2024-03-12T17:40:53.933Z,72.01
2024-03-12T17:43:21.804Z,72.27
2024-03-12T17:45:48.672Z,71.95
2024-03-12T17:48:20.114Z,73.12
2024-03-12T17:50:46.904Z,73.56
2024-03-12T17:53:13.776Z,73.81
2024-03-12T17:55:43.858Z,73.54
2024-03-12T17:58:12.761Z,74.27
2024-03-12T18:00:39.582Z,73.45
2024-03-12T18:03:06.527Z,74.22
2024-03-12T18:05:33.176Z,73.70
2024-03-12T18:08:00.260Z,73.70
2024-03-12T18:10:28.150Z,73.72
2024-03-12T18:12:55.480Z,73.76
2024-03-12T18:15:24.285Z,74.33
2024-03-12T18:17:51.076Z,75.29
2024-03-12T18:20:29.010Z,75.59
2024-03-12T18:22:55.530Z,75.75
2024-03-12T18:25:22.566Z,76.54
2024-03-12T18:27:54.748Z,78.16
2024-03-12T18:30:21.565Z,77.30
2024-03-12T18:32:49.838Z,76.45
2024-03-12T18:35:18.322Z,76.15
2024-03-12T18:37:45.978Z,75.13
2024-03-12T18:40:14.346Z,75.34
2024-03-12T18:42:45.552Z,75.37
2024-03-12T18:45:18.966Z,75.36
2024-03-12T18:47:48.343Z,75.35
2024-03-12T18:50:15.709Z,75.54
2024-03-12T18:52:43.616Z,76.45
2024-03-12T18:55:11.292Z,76.51
2024-03-12T18:57:41.870Z,76.55
2024-03-12T19:00:18.953Z,77.73
2024-03-12T19:02:49.593Z,78.11
2024-03-12T19:05:21.330Z,78.07
2024-03-12T19:07:52.892Z,77.90
2024-03-12T19:10:20.792Z,77.48
2024-03-12T19:12:47.985Z,76.69
2024-03-12T19:15:16.617Z,76.08
2024-03-12T19:17:45.418Z,76.18
2024-03-12T19:20:16.958Z,75.52
2024-03-12T19:22:45.073Z,75.31
2024-03-12T19:25:13.532Z,74.89
2024-03-12T19:27:42.686Z,74.57
2024-03-12T19:30:09.560Z,73.90
2024-03-12T19:32:39.181Z,74.33
2024-03-12T19:35:07.958Z,75.06
2024-03-12T19:37:38.495Z,74.21
2024-03-12T19:40:17.616Z,74.92
2024-03-12T19:42:46.034Z,74.76
2024-03-12T19:45:13.202Z,75.17
2024-03-12T19:47:45.173Z,75.41
2024-03-12T19:50:21.092Z,74.10
2024-03-12T19:52:48.751Z,74.71
2024-03-12T19:55:19.797Z,74.43
2024-03-12T19:57:48.491Z,74.57
2024-03-12T20:00:19.748Z,74.66
2024-03-12T20:02:50.108Z,74.78
2024-03-12T20:05:20.475Z,74.63
2024-03-12T20:07:47.174Z,75.69
2024-03-12T20:10:14.726Z,75.49
2024-03-12T20:12:41.456Z,75.32
2024-03-12T20:15:12.806Z,74.94
2024-03-12T20:17:42.740Z,74.91
2024-03-12T20:20:14.329Z,74.81
2024-03-12T20:22:42.179Z,74.93
2024-03-12T20:25:12.839Z,74.59
2024-03-12T20:27:39.665Z,74.52
2024-03-12T20:30:06.823Z,74.88
2024-03-12T20:32:33.606Z,75.27
2024-03-12T20:35:00.687Z,75.38
2024-03-12T20:37:27.438Z,75.61
2024-03-12T20:39:54.219Z,75.84
2024-03-12T20:42:23.131Z,74.83
2024-03-12T20:44:50.812Z,75.90
2024-03-12T20:47:19.269Z,76.22
2024-03-12T20:49:46.236Z,77.87
2024-03-12T20:52:14.416Z,77.21
2024-03-12T20:54:43.791Z,77.61
2024-03-12T20:57:12.263Z,78.09
2024-03-12T20:59:42.413Z,77.61
2024-03-12T21:02:13.404Z,77.62
2024-03-12T21:04:42.854Z,77.71
2024-03-12T21:07:12.620Z,78.25
2024-03-12T21:09:39.766Z,78.07
2024-03-12T21:12:06.556Z,77.33
2024-03-12T21:14:33.122Z,78.16
2024-03-12T21:17:03.733Z,77.90
2024-03-12T21:19:30.599Z,77.88
2024-03-12T21:21:57.334Z,78.57
2024-03-12T21:24:24.985Z,79.44
2024-03-12T21:26:51.849Z,80.28
2024-03-12T21:29:19.867Z,81.21
2024-03-12T21:31:46.808Z,82.33
2024-03-12T21:34:13.492Z,82.29
2024-03-12T21:36:43.217Z,81.54
2024-03-12T21:39:10.005Z,81.92
2024-03-12T21:41:36.937Z,81.49
2024-03-12T21:44:03.437Z,82.05
2024-03-12T21:46:29.894Z,81.92
2024-03-12T21:48:56.589Z,83.24
2024-03-12T21:51:27.829Z,82.36
2024-03-12T21:53:57.996Z,82.34
2024-03-12T21:56:27.474Z,81.30
2024-03-12T21:58:54.319Z,81.05
2024-03-12T22:01:22.092Z,81.17
2024-03-12T22:03:51.354Z,82.23
2024-03-12T22:06:18.226Z,83.04
2024-03-12T22:08:47.467Z,82.59
2024-03-12T22:11:15.043Z,82.88
2024-03-12T22:13:45.447Z,82.72
2024-03-12T22:16:15.986Z,82.79
2024-03-12T22:18:43.731Z,83.76
2024-03-12T22:21:11.283Z,83.83
2024-03-12T22:23:41.477Z,84.14
2024-03-12T22:26:08.965Z,84.46
2024-03-12T22:28:36.101Z,84.48
2024-03-12T22:31:04.228Z,83.75
2024-03-12T22:33:30.828Z,85.08
2024-03-12T22:35:58.152Z,85.07
2024-03-12T22:38:28.423Z,84.63
2024-03-12T22:40:55.321Z,83.66
2024-03-12T22:43:27.399Z,83.38
2024-03-12T22:45:55.204Z,83.50
2024-03-12T22:48:22.410Z,83.88
2024-03-12T22:50:49.149Z,84.66
2024-03-12T22:53:20.144Z,84.56
2024-03-12T22:55:46.997Z,84.22
2024-03-12T22:58:13.771Z,83.67
2024-03-12T23:00:42.060Z,82.63
2024-03-12T23:03:13.796Z,83.52
2024-03-12T23:05:43.419Z,83.56
2024-03-12T23:08:15.336Z,82.55
2024-03-12T23:10:45.058Z,82.32
2024-03-12T23:13:12.422Z,81.19
2024-03-12T23:15:39.991Z,81.90
2024-03-12T23:18:10.562Z,83.53
2024-03-12T23:20:40.312Z,82.67
2024-03-12T23:23:08.309Z,82.77
2024-03-12T23:25:35.727Z,82.34
2024-03-12T23:28:02.345Z,81.78
2024-03-12T23:30:28.916Z,82.94
2024-03-12T23:32:58.949Z,82.89
2024-03-12T23:35:27.857Z,81.69
2024-03-12T23:37:58.203Z,82.44
2024-03-12T23:40:25.938Z,81.39
2024-03-12T23:42:54.695Z,81.67
2024-03-12T23:45:21.993Z,81.76
2024-03-12T23:47:49.457Z,81.97
2024-03-12T23:50:16.226Z,80.64
2024-03-12T23:52:43.104Z,80.18
2024-03-12T23:55:10.881Z,80.65
2024-03-12T23:57:38.194Z,80.12
